sensor_id;sensor_type;location;lat;lon;timestamp;P1;durP1;ratioP1;P2;durP2;ratioP2
16139;SDS011;8175;49.326;12.690;2024-01-30T00:01:13;5.67;;;4.23;;
16139;SDS011;8175;49.326;12.690;2024-01-30T00:03:38;4.77;;;3.67;;
16139;SDS011;8175;49.326;12.690;2024-01-30T00:06:04;6.60;;;4.10;;
16139;SDS011;8175;49.326;12.690;2024-01-30T00:08:30;6.20;;;4.23;;
16139;SDS011;8175;49.326;12.690;2024-01-30T00:10:55;5.77;;;4.30;;
16139;SDS011;8175;49.326;12.690;2024-01-30T00:13:21;6.40;;;4.10;;
16139;SDS011;8175;49.326;12.690;2024-01-30T00:15:47;5.67;;;3.27;;
16139;SDS011;8175;49.326;12.690;2024-01-30T00:18:13;5.00;;;4.07;;
16139;SDS011;8175;49.326;12.690;2024-01-30T00:20:39;4.70;;;3.60;;
16139;SDS011;8175;49.326;12.690;2024-01-30T00:23:05;5.47;;;3.73;;
16139;SDS011;8175;49.326;12.690;2024-01-30T00:25:30;6.30;;;3.83;;
16139;SDS011;8175;49.326;12.690;2024-01-30T00:27:58;6.07;;;4.13;;
16139;SDS011;8175;49.326;12.690;2024-01-30T00:30:23;4.30;;;3.70;;
16139;SDS011;8175;49.326;12.690;2024-01-30T00:32:49;5.43;;;3.60;;
16139;SDS011;8175;49.326;12.690;2024-01-30T00:35:15;5.67;;;3.60;;
16139;SDS011;8175;49.326;12.690;2024-01-30T00:37:41;6.03;;;4.07;;
16139;SDS011;8175;49.326;12.690;2024-01-30T00:40:06;4.97;;;3.90;;
16139;SDS011;8175;49.326;12.690;2024-01-30T00:42:32;4.63;;;3.83;;
16139;SDS011;8175;49.326;12.690;2024-01-30T00:44:58;4.13;;;3.73;;
16139;SDS011;8175;49.326;12.690;2024-01-30T00:47:24;5.27;;;4.10;;
16139;SDS011;8175;49.326;12.690;2024-01-30T00:49:49;6.53;;;5.50;;
16139;SDS011;8175;49.326;12.690;2024-01-30T00:52:15;5.90;;;4.60;;
16139;SDS011;8175;49.326;12.690;2024-01-30T00:54:41;4.43;;;3.53;;
16139;SDS011;8175;49.326;12.690;2024-01-30T00:57:07;3.17;;;2.87;;
16139;SDS011;8175;49.326;12.690;2024-01-30T00:59:32;3.13;;;2.83;;
16139;SDS011;8175;49.326;12.690;2024-01-30T01:01:58;3.97;;;3.10;;
16139;SDS011;8175;49.326;12.690;2024-01-30T01:04:24;3.57;;;2.90;;
16139;SDS011;8175;49.326;12.690;2024-01-30T01:06:51;3.80;;;3.43;;
16139;SDS011;8175;49.326;12.690;2024-01-30T01:09:17;4.07;;;3.13;;
16139;SDS011;8175;49.326;12.690;2024-01-30T01:11:43;6.17;;;4.50;;
16139;SDS011;8175;49.326;12.690;2024-01-30T01:14:08;4.27;;;3.50;;
16139;SDS011;8175;49.326;12.690;2024-01-30T01:16:34;5.47;;;4.30;;
16139;SDS011;8175;49.326;12.690;2024-01-30T01:19:00;4.27;;;3.80;;
16139;SDS011;8175;49.326;12.690;2024-01-30T01:21:25;5.20;;;3.83;;
16139;SDS011;8175;49.326;12.690;2024-01-30T01:23:52;5.30;;;3.43;;
16139;SDS011;8175;49.326;12.690;2024-01-30T01:26:17;4.80;;;3.93;;
16139;SDS011;8175;49.326;12.690;2024-01-30T01:28:43;4.13;;;3.37;;
16139;SDS011;8175;49.326;12.690;2024-01-30T01:31:08;6.43;;;4.30;;
16139;SDS011;8175;49.326;12.690;2024-01-30T01:33:34;5.97;;;3.83;;
16139;SDS011;8175;49.326;12.690;2024-01-30T01:36:02;9.63;;;5.83;;
16139;SDS011;8175;49.326;12.690;2024-01-30T01:38:28;10.47;;;6.07;;
16139;SDS011;8175;49.326;12.690;2024-01-30T01:40:54;6.87;;;4.90;;
16139;SDS011;8175;49.326;12.690;2024-01-30T01:43:19;6.20;;;5.10;;
16139;SDS011;8175;49.326;12.690;2024-01-30T01:45:45;4.77;;;3.70;;
16139;SDS011;8175;49.326;12.690;2024-01-30T01:48:11;5.87;;;4.03;;
16139;SDS011;8175;49.326;12.690;2024-01-30T01:50:37;11.73;;;6.53;;
16139;SDS011;8175;49.326;12.690;2024-01-30T01:53:03;9.57;;;6.93;;
16139;SDS011;8175;49.326;12.690;2024-01-30T01:55:32;9.83;;;7.03;;
16139;SDS011;8175;49.326;12.690;2024-01-30T01:57:59;17.57;;;8.93;;
16139;SDS011;8175;49.326;12.690;2024-01-30T02:00:25;10.17;;;7.03;;
16139;SDS011;8175;49.326;12.690;2024-01-30T02:02:51;18.47;;;12.20;;
16139;SDS011;8175;49.326;12.690;2024-01-30T02:05:19;12.27;;;8.47;;
16139;SDS011;8175;49.326;12.690;2024-01-30T02:07:46;13.87;;;6.77;;
16139;SDS011;8175;49.326;12.690;2024-01-30T02:10:12;13.60;;;8.70;;
16139;SDS011;8175;49.326;12.690;2024-01-30T02:12:38;15.27;;;10.03;;
16139;SDS011;8175;49.326;12.690;2024-01-30T02:15:05;10.00;;;6.47;;
16139;SDS011;8175;49.326;12.690;2024-01-30T02:17:32;9.93;;;6.53;;
16139;SDS011;8175;49.326;12.690;2024-01-30T02:19:58;9.30;;;5.60;;
16139;SDS011;8175;49.326;12.690;2024-01-30T02:22:24;7.00;;;5.43;;
16139;SDS011;8175;49.326;12.690;2024-01-30T02:24:49;5.83;;;4.10;;
16139;SDS011;8175;49.326;12.690;2024-01-30T02:27:15;7.33;;;5.03;;
16139;SDS011;8175;49.326;12.690;2024-01-30T02:29:41;6.67;;;4.50;;
16139;SDS011;8175;49.326;12.690;2024-01-30T02:32:06;7.00;;;5.50;;
16139;SDS011;8175;49.326;12.690;2024-01-30T02:34:32;6.40;;;4.87;;
16139;SDS011;8175;49.326;12.690;2024-01-30T02:36:58;6.43;;;5.03;;
16139;SDS011;8175;49.326;12.690;2024-01-30T02:39:24;7.33;;;4.93;;
16139;SDS011;8175;49.326;12.690;2024-01-30T02:41:50;6.00;;;4.80;;
16139;SDS011;8175;49.326;12.690;2024-01-30T02:44:15;6.50;;;4.47;;
16139;SDS011;8175;49.326;12.690;2024-01-30T02:46:41;7.23;;;5.10;;
16139;SDS011;8175;49.326;12.690;2024-01-30T02:49:07;9.10;;;5.20;;
16139;SDS011;8175;49.326;12.690;2024-01-30T02:51:32;7.07;;;4.97;;
16139;SDS011;8175;49.326;12.690;2024-01-30T02:53:58;5.63;;;4.80;;
16139;SDS011;8175;49.326;12.690;2024-01-30T02:56:24;6.20;;;4.00;;
16139;SDS011;8175;49.326;12.690;2024-01-30T02:58:50;6.17;;;4.43;;
16139;SDS011;8175;49.326;12.690;2024-01-30T03:01:15;4.03;;;3.60;;
16139;SDS011;8175;49.326;12.690;2024-01-30T03:03:41;4.93;;;4.43;;
16139;SDS011;8175;49.326;12.690;2024-01-30T03:06:08;4.57;;;4.00;;
16139;SDS011;8175;49.326;12.690;2024-01-30T03:08:34;5.10;;;3.37;;
16139;SDS011;8175;49.326;12.690;2024-01-30T03:11:00;7.17;;;3.50;;
16139;SDS011;8175;49.326;12.690;2024-01-30T03:13:26;5.20;;;3.43;;
16139;SDS011;8175;49.326;12.690;2024-01-30T03:15:52;4.60;;;3.17;;
16139;SDS011;8175;49.326;12.690;2024-01-30T03:18:17;5.83;;;3.30;;
16139;SDS011;8175;49.326;12.690;2024-01-30T03:20:44;6.97;;;4.13;;
16139;SDS011;8175;49.326;12.690;2024-01-30T03:23:10;5.83;;;4.20;;
16139;SDS011;8175;49.326;12.690;2024-01-30T03:25:35;7.83;;;5.00;;
16139;SDS011;8175;49.326;12.690;2024-01-30T03:28:01;8.73;;;5.83;;
16139;SDS011;8175;49.326;12.690;2024-01-30T03:30:26;12.37;;;6.43;;
16139;SDS011;8175;49.326;12.690;2024-01-30T03:32:52;13.03;;;6.87;;
16139;SDS011;8175;49.326;12.690;2024-01-30T03:35:18;10.53;;;6.93;;
16139;SDS011;8175;49.326;12.690;2024-01-30T03:37:44;10.70;;;6.87;;
16139;SDS011;8175;49.326;12.690;2024-01-30T03:40:10;7.60;;;5.67;;
16139;SDS011;8175;49.326;12.690;2024-01-30T03:42:36;7.27;;;5.07;;
16139;SDS011;8175;49.326;12.690;2024-01-30T03:45:01;8.10;;;5.53;;
16139;SDS011;8175;49.326;12.690;2024-01-30T03:47:27;8.17;;;5.27;;
16139;SDS011;8175;49.326;12.690;2024-01-30T03:49:53;10.57;;;5.40;;
16139;SDS011;8175;49.326;12.690;2024-01-30T03:52:19;8.63;;;6.03;;
16139;SDS011;8175;49.326;12.690;2024-01-30T03:54:44;14.80;;;9.07;;
16139;SDS011;8175;49.326;12.690;2024-01-30T03:57:10;12.70;;;8.90;;
16139;SDS011;8175;49.326;12.690;2024-01-30T03:59:36;8.20;;;5.90;;
16139;SDS011;8175;49.326;12.690;2024-01-30T04:02:01;10.97;;;7.87;;
16139;SDS011;8175;49.326;12.690;2024-01-30T04:04:27;12.07;;;6.53;;
16139;SDS011;8175;49.326;12.690;2024-01-30T04:06:53;9.87;;;7.07;;
16139;SDS011;8175;49.326;12.690;2024-01-30T04:09:18;9.87;;;6.83;;
16139;SDS011;8175;49.326;12.690;2024-01-30T04:11:44;13.60;;;6.57;;
16139;SDS011;8175;49.326;12.690;2024-01-30T04:14:10;10.20;;;5.93;;
16139;SDS011;8175;49.326;12.690;2024-01-30T04:16:36;12.90;;;7.77;;
16139;SDS011;8175;49.326;12.690;2024-01-30T04:19:01;11.23;;;7.70;;
16139;SDS011;8175;49.326;12.690;2024-01-30T04:21:27;11.10;;;7.63;;
16139;SDS011;8175;49.326;12.690;2024-01-30T04:23:53;7.90;;;5.60;;
16139;SDS011;8175;49.326;12.690;2024-01-30T04:26:18;8.57;;;6.27;;
16139;SDS011;8175;49.326;12.690;2024-01-30T04:28:44;11.60;;;7.87;;
16139;SDS011;8175;49.326;12.690;2024-01-30T04:31:10;13.80;;;7.77;;
16139;SDS011;8175;49.326;12.690;2024-01-30T04:33:36;8.80;;;5.80;;
16139;SDS011;8175;49.326;12.690;2024-01-30T04:36:02;8.07;;;5.50;;
16139;SDS011;8175;49.326;12.690;2024-01-30T04:38:28;6.57;;;5.03;;
16139;SDS011;8175;49.326;12.690;2024-01-30T04:40:54;7.83;;;5.20;;
16139;SDS011;8175;49.326;12.690;2024-01-30T04:43:20;7.87;;;5.43;;
16139;SDS011;8175;49.326;12.690;2024-01-30T04:45:46;7.30;;;5.13;;
16139;SDS011;8175;49.326;12.690;2024-01-30T04:48:12;7.80;;;5.70;;
16139;SDS011;8175;49.326;12.690;2024-01-30T04:50:38;7.73;;;6.57;;
16139;SDS011;8175;49.326;12.690;2024-01-30T04:53:04;9.67;;;6.83;;
16139;SDS011;8175;49.326;12.690;2024-01-30T04:55:30;8.27;;;6.13;;
16139;SDS011;8175;49.326;12.690;2024-01-30T04:57:55;10.77;;;5.97;;
16139;SDS011;8175;49.326;12.690;2024-01-30T05:00:21;18.93;;;9.97;;
16139;SDS011;8175;49.326;12.690;2024-01-30T05:02:46;13.73;;;9.70;;
16139;SDS011;8175;49.326;12.690;2024-01-30T05:05:12;17.13;;;10.57;;
16139;SDS011;8175;49.326;12.690;2024-01-30T05:07:39;14.70;;;9.30;;
16139;SDS011;8175;49.326;12.690;2024-01-30T05:10:06;12.30;;;9.63;;
16139;SDS011;8175;49.326;12.690;2024-01-30T05:12:33;12.00;;;8.47;;
16139;SDS011;8175;49.326;12.690;2024-01-30T05:14:59;12.20;;;8.33;;
16139;SDS011;8175;49.326;12.690;2024-01-30T05:17:24;12.13;;;7.87;;
16139;SDS011;8175;49.326;12.690;2024-01-30T05:19:50;9.87;;;6.83;;
16139;SDS011;8175;49.326;12.690;2024-01-30T05:22:15;9.27;;;6.50;;
16139;SDS011;8175;49.326;12.690;2024-01-30T05:24:43;7.73;;;5.90;;
16139;SDS011;8175;49.326;12.690;2024-01-30T05:27:09;6.67;;;5.27;;
16139;SDS011;8175;49.326;12.690;2024-01-30T05:29:35;8.73;;;6.20;;
16139;SDS011;8175;49.326;12.690;2024-01-30T05:32:01;9.13;;;7.60;;
16139;SDS011;8175;49.326;12.690;2024-01-30T05:34:27;11.33;;;6.83;;
16139;SDS011;8175;49.326;12.690;2024-01-30T05:36:53;10.73;;;7.33;;
16139;SDS011;8175;49.326;12.690;2024-01-30T05:39:19;8.20;;;6.37;;
16139;SDS011;8175;49.326;12.690;2024-01-30T05:41:45;8.07;;;6.43;;
16139;SDS011;8175;49.326;12.690;2024-01-30T05:44:10;8.83;;;6.30;;
16139;SDS011;8175;49.326;12.690;2024-01-30T05:46:36;8.73;;;7.07;;
16139;SDS011;8175;49.326;12.690;2024-01-30T05:49:01;14.40;;;7.87;;
16139;SDS011;8175;49.326;12.690;2024-01-30T05:51:27;16.17;;;10.37;;
16139;SDS011;8175;49.326;12.690;2024-01-30T05:53:53;17.90;;;12.63;;
16139;SDS011;8175;49.326;12.690;2024-01-30T05:56:19;17.97;;;12.97;;
16139;SDS011;8175;49.326;12.690;2024-01-30T05:58:44;22.20;;;13.23;;
16139;SDS011;8175;49.326;12.690;2024-01-30T06:01:10;13.07;;;9.93;;
16139;SDS011;8175;49.326;12.690;2024-01-30T06:03:36;9.97;;;7.97;;
16139;SDS011;8175;49.326;12.690;2024-01-30T06:06:02;8.60;;;7.70;;
16139;SDS011;8175;49.326;12.690;2024-01-30T06:08:27;26.63;;;17.33;;
16139;SDS011;8175;49.326;12.690;2024-01-30T06:10:53;9.93;;;7.73;;
16139;SDS011;8175;49.326;12.690;2024-01-30T06:13:19;15.27;;;8.70;;
16139;SDS011;8175;49.326;12.690;2024-01-30T06:15:45;17.07;;;9.93;;
16139;SDS011;8175;49.326;12.690;2024-01-30T06:18:11;11.53;;;7.60;;
16139;SDS011;8175;49.326;12.690;2024-01-30T06:20:36;13.93;;;7.63;;
16139;SDS011;8175;49.326;12.690;2024-01-30T06:23:02;11.20;;;7.20;;
16139;SDS011;8175;49.326;12.690;2024-01-30T06:25:28;10.77;;;7.80;;
16139;SDS011;8175;49.326;12.690;2024-01-30T06:27:53;9.53;;;6.80;;
16139;SDS011;8175;49.326;12.690;2024-01-30T06:30:19;10.33;;;7.43;;
16139;SDS011;8175;49.326;12.690;2024-01-30T06:32:45;14.60;;;7.00;;
16139;SDS011;8175;49.326;12.690;2024-01-30T06:35:10;10.30;;;7.17;;
16139;SDS011;8175;49.326;12.690;2024-01-30T06:37:36;9.47;;;7.20;;
16139;SDS011;8175;49.326;12.690;2024-01-30T06:40:02;10.73;;;7.50;;
16139;SDS011;8175;49.326;12.690;2024-01-30T06:42:29;11.20;;;7.80;;
16139;SDS011;8175;49.326;12.690;2024-01-30T06:44:55;9.77;;;7.70;;
16139;SDS011;8175;49.326;12.690;2024-01-30T06:47:21;8.70;;;7.03;;
16139;SDS011;8175;49.326;12.690;2024-01-30T06:49:47;9.53;;;7.63;;
16139;SDS011;8175;49.326;12.690;2024-01-30T06:52:12;13.53;;;9.20;;
16139;SDS011;8175;49.326;12.690;2024-01-30T06:54:39;13.70;;;9.40;;
16139;SDS011;8175;49.326;12.690;2024-01-30T06:57:05;12.17;;;8.57;;
16139;SDS011;8175;49.326;12.690;2024-01-30T06:59:36;11.03;;;7.37;;
16139;SDS011;8175;49.326;12.690;2024-01-30T07:02:02;11.83;;;7.93;;
16139;SDS011;8175;49.326;12.690;2024-01-30T07:04:28;10.63;;;6.97;;
16139;SDS011;8175;49.326;12.690;2024-01-30T07:06:53;9.90;;;6.40;;
16139;SDS011;8175;49.326;12.690;2024-01-30T07:09:19;13.47;;;7.53;;
16139;SDS011;8175;49.326;12.690;2024-01-30T07:11:45;8.47;;;6.83;;
16139;SDS011;8175;49.326;12.690;2024-01-30T07:14:10;8.50;;;6.03;;
16139;SDS011;8175;49.326;12.690;2024-01-30T07:16:36;8.50;;;6.03;;
16139;SDS011;8175;49.326;12.690;2024-01-30T07:19:02;8.97;;;7.00;;
16139;SDS011;8175;49.326;12.690;2024-01-30T07:21:27;10.30;;;7.13;;
16139;SDS011;8175;49.326;12.690;2024-01-30T07:23:56;11.90;;;7.57;;
16139;SDS011;8175;49.326;12.690;2024-01-30T07:26:22;8.40;;;6.63;;
16139;SDS011;8175;49.326;12.690;2024-01-30T07:28:48;7.73;;;6.17;;
16139;SDS011;8175;49.326;12.690;2024-01-30T07:31:15;8.27;;;5.77;;
16139;SDS011;8175;49.326;12.690;2024-01-30T07:33:40;11.20;;;6.60;;
16139;SDS011;8175;49.326;12.690;2024-01-30T07:36:06;9.27;;;6.77;;
16139;SDS011;8175;49.326;12.690;2024-01-30T07:38:32;11.90;;;7.20;;
16139;SDS011;8175;49.326;12.690;2024-01-30T07:40:57;10.10;;;7.43;;
16139;SDS011;8175;49.326;12.690;2024-01-30T07:43:23;9.23;;;6.40;;
16139;SDS011;8175;49.326;12.690;2024-01-30T07:45:49;13.33;;;8.33;;
16139;SDS011;8175;49.326;12.690;2024-01-30T07:48:14;10.47;;;7.07;;
16139;SDS011;8175;49.326;12.690;2024-01-30T07:50:40;8.13;;;6.50;;
16139;SDS011;8175;49.326;12.690;2024-01-30T07:53:06;8.40;;;6.07;;
16139;SDS011;8175;49.326;12.690;2024-01-30T07:55:32;7.60;;;5.30;;
16139;SDS011;8175;49.326;12.690;2024-01-30T07:57:57;5.93;;;4.77;;
16139;SDS011;8175;49.326;12.690;2024-01-30T08:00:26;6.10;;;4.30;;
16139;SDS011;8175;49.326;12.690;2024-01-30T08:02:54;7.43;;;5.53;;
16139;SDS011;8175;49.326;12.690;2024-01-30T08:05:20;6.50;;;4.87;;
16139;SDS011;8175;49.326;12.690;2024-01-30T08:07:47;10.33;;;7.67;;
16139;SDS011;8175;49.326;12.690;2024-01-30T08:10:15;5.77;;;4.50;;
16139;SDS011;8175;49.326;12.690;2024-01-30T08:12:43;6.87;;;5.10;;
16139;SDS011;8175;49.326;12.690;2024-01-30T08:15:08;9.60;;;5.60;;
16139;SDS011;8175;49.326;12.690;2024-01-30T08:17:34;11.47;;;6.60;;
16139;SDS011;8175;49.326;12.690;2024-01-30T08:20:00;8.40;;;6.50;;
16139;SDS011;8175;49.326;12.690;2024-01-30T08:22:26;5.70;;;4.70;;
16139;SDS011;8175;49.326;12.690;2024-01-30T08:24:51;5.60;;;4.00;;
16139;SDS011;8175;49.326;12.690;2024-01-30T08:27:17;4.87;;;3.80;;
16139;SDS011;8175;49.326;12.690;2024-01-30T08:29:42;7.90;;;5.43;;
16139;SDS011;8175;49.326;12.690;2024-01-30T08:32:08;12.63;;;8.67;;
16139;SDS011;8175;49.326;12.690;2024-01-30T08:34:34;15.27;;;9.67;;
16139;SDS011;8175;49.326;12.690;2024-01-30T08:36:59;5.73;;;4.60;;
16139;SDS011;8175;49.326;12.690;2024-01-30T08:39:25;14.30;;;10.23;;
16139;SDS011;8175;49.326;12.690;2024-01-30T08:41:51;12.33;;;8.13;;
16139;SDS011;8175;49.326;12.690;2024-01-30T08:44:16;14.10;;;9.60;;
16139;SDS011;8175;49.326;12.690;2024-01-30T08:46:43;15.13;;;10.30;;
16139;SDS011;8175;49.326;12.690;2024-01-30T08:49:11;14.60;;;10.10;;
16139;SDS011;8175;49.326;12.690;2024-01-30T08:51:38;29.27;;;18.80;;
16139;SDS011;8175;49.326;12.690;2024-01-30T08:54:04;63.43;;;39.60;;
16139;SDS011;8175;49.326;12.690;2024-01-30T08:56:30;16.80;;;12.03;;
16139;SDS011;8175;49.326;12.690;2024-01-30T08:58:56;15.13;;;10.90;;
16139;SDS011;8175;49.326;12.690;2024-01-30T09:01:21;13.50;;;10.73;;
16139;SDS011;8175;49.326;12.690;2024-01-30T09:03:47;13.90;;;10.03;;
16139;SDS011;8175;49.326;12.690;2024-01-30T09:06:12;8.43;;;6.60;;
16139;SDS011;8175;49.326;12.690;2024-01-30T09:08:38;11.00;;;7.87;;
16139;SDS011;8175;49.326;12.690;2024-01-30T09:11:11;10.67;;;8.07;;
16139;SDS011;8175;49.326;12.690;2024-01-30T09:13:38;9.90;;;6.97;;
16139;SDS011;8175;49.326;12.690;2024-01-30T09:16:04;6.83;;;6.10;;
16139;SDS011;8175;49.326;12.690;2024-01-30T09:18:30;7.50;;;5.97;;
16139;SDS011;8175;49.326;12.690;2024-01-30T09:20:56;12.43;;;8.73;;
16139;SDS011;8175;49.326;12.690;2024-01-30T09:23:22;15.60;;;10.40;;
16139;SDS011;8175;49.326;12.690;2024-01-30T09:25:47;17.40;;;12.80;;
16139;SDS011;8175;49.326;12.690;2024-01-30T09:28:13;8.53;;;7.03;;
16139;SDS011;8175;49.326;12.690;2024-01-30T09:30:39;12.20;;;9.77;;
16139;SDS011;8175;49.326;12.690;2024-01-30T09:33:05;12.93;;;8.67;;
16139;SDS011;8175;49.326;12.690;2024-01-30T09:35:31;10.90;;;7.87;;
16139;SDS011;8175;49.326;12.690;2024-01-30T09:37:57;12.27;;;7.57;;
16139;SDS011;8175;49.326;12.690;2024-01-30T09:40:23;10.13;;;6.80;;
16139;SDS011;8175;49.326;12.690;2024-01-30T09:42:50;8.83;;;6.23;;
16139;SDS011;8175;49.326;12.690;2024-01-30T09:45:17;9.33;;;7.10;;
16139;SDS011;8175;49.326;12.690;2024-01-30T09:47:44;10.30;;;7.73;;
16139;SDS011;8175;49.326;12.690;2024-01-30T09:50:12;9.83;;;7.03;;
16139;SDS011;8175;49.326;12.690;2024-01-30T09:52:39;11.60;;;9.53;;
16139;SDS011;8175;49.326;12.690;2024-01-30T09:55:06;10.87;;;7.30;;
16139;SDS011;8175;49.326;12.690;2024-01-30T09:57:32;11.37;;;7.37;;
16139;SDS011;8175;49.326;12.690;2024-01-30T09:59:59;11.07;;;7.73;;
16139;SDS011;8175;49.326;12.690;2024-01-30T10:02:24;9.63;;;7.63;;
16139;SDS011;8175;49.326;12.690;2024-01-30T10:04:51;11.57;;;9.00;;
16139;SDS011;8175;49.326;12.690;2024-01-30T10:07:20;11.00;;;8.10;;
16139;SDS011;8175;49.326;12.690;2024-01-30T10:09:45;10.23;;;7.27;;
16139;SDS011;8175;49.326;12.690;2024-01-30T10:12:11;9.77;;;7.53;;
16139;SDS011;8175;49.326;12.690;2024-01-30T10:14:40;12.60;;;8.10;;
16139;SDS011;8175;49.326;12.690;2024-01-30T10:17:07;9.83;;;8.37;;
16139;SDS011;8175;49.326;12.690;2024-01-30T10:19:34;10.20;;;8.17;;
16139;SDS011;8175;49.326;12.690;2024-01-30T10:22:00;8.27;;;7.13;;
16139;SDS011;8175;49.326;12.690;2024-01-30T10:24:26;8.87;;;7.00;;
16139;SDS011;8175;49.326;12.690;2024-01-30T10:26:54;9.27;;;7.40;;
16139;SDS011;8175;49.326;12.690;2024-01-30T10:29:19;8.70;;;7.10;;
16139;SDS011;8175;49.326;12.690;2024-01-30T10:31:45;10.17;;;7.77;;
16139;SDS011;8175;49.326;12.690;2024-01-30T10:34:12;10.77;;;8.10;;
16139;SDS011;8175;49.326;12.690;2024-01-30T10:36:41;10.17;;;8.00;;
16139;SDS011;8175;49.326;12.690;2024-01-30T10:39:11;12.63;;;9.50;;
16139;SDS011;8175;49.326;12.690;2024-01-30T10:41:44;14.23;;;9.77;;
16139;SDS011;8175;49.326;12.690;2024-01-30T10:44:13;13.40;;;11.20;;
16139;SDS011;8175;49.326;12.690;2024-01-30T10:46:45;10.53;;;9.33;;
16139;SDS011;8175;49.326;12.690;2024-01-30T10:49:26;14.40;;;10.47;;
16139;SDS011;8175;49.326;12.690;2024-01-30T10:51:52;10.07;;;9.07;;
16139;SDS011;8175;49.326;12.690;2024-01-30T10:54:19;9.47;;;7.97;;
16139;SDS011;8175;49.326;12.690;2024-01-30T10:56:45;10.83;;;9.60;;
16139;SDS011;8175;49.326;12.690;2024-01-30T10:59:12;10.03;;;8.97;;
16139;SDS011;8175;49.326;12.690;2024-01-30T11:01:38;10.83;;;9.47;;
16139;SDS011;8175;49.326;12.690;2024-01-30T11:04:04;11.17;;;9.20;;
16139;SDS011;8175;49.326;12.690;2024-01-30T11:06:31;11.90;;;9.50;;
16139;SDS011;8175;49.326;12.690;2024-01-30T11:09:00;9.00;;;7.87;;
16139;SDS011;8175;49.326;12.690;2024-01-30T11:11:47;8.03;;;7.20;;
16139;SDS011;8175;49.326;12.690;2024-01-30T11:14:22;8.60;;;6.80;;
16139;SDS011;8175;49.326;12.690;2024-01-30T11:16:50;5.43;;;4.93;;
16139;SDS011;8175;49.326;12.690;2024-01-30T11:19:15;6.30;;;5.60;;
16139;SDS011;8175;49.326;12.690;2024-01-30T11:21:51;5.47;;;4.83;;
16139;SDS011;8175;49.326;12.690;2024-01-30T11:24:22;5.77;;;5.20;;
16139;SDS011;8175;49.326;12.690;2024-01-30T11:26:49;7.67;;;6.07;;
16139;SDS011;8175;49.326;12.690;2024-01-30T11:29:20;8.67;;;6.90;;
16139;SDS011;8175;49.326;12.690;2024-01-30T11:31:53;9.80;;;8.90;;
16139;SDS011;8175;49.326;12.690;2024-01-30T11:34:23;5.27;;;4.77;;
16139;SDS011;8175;49.326;12.690;2024-01-30T11:36:53;6.63;;;5.43;;
16139;SDS011;8175;49.326;12.690;2024-01-30T11:39:25;6.00;;;4.93;;
16139;SDS011;8175;49.326;12.690;2024-01-30T11:41:54;7.27;;;5.30;;
16139;SDS011;8175;49.326;12.690;2024-01-30T11:44:21;6.83;;;5.57;;
16139;SDS011;8175;49.326;12.690;2024-01-30T11:46:50;7.73;;;6.03;;
16139;SDS011;8175;49.326;12.690;2024-01-30T11:49:17;7.93;;;6.13;;
16139;SDS011;8175;49.326;12.690;2024-01-30T11:51:43;6.63;;;5.30;;
16139;SDS011;8175;49.326;12.690;2024-01-30T11:54:10;6.23;;;5.07;;
16139;SDS011;8175;49.326;12.690;2024-01-30T11:56:37;6.87;;;5.30;;
16139;SDS011;8175;49.326;12.690;2024-01-30T11:59:03;6.03;;;5.43;;
16139;SDS011;8175;49.326;12.690;2024-01-30T12:01:30;5.93;;;4.93;;
16139;SDS011;8175;49.326;12.690;2024-01-30T12:03:56;6.20;;;5.50;;
16139;SDS011;8175;49.326;12.690;2024-01-30T12:06:23;7.70;;;5.87;;
16139;SDS011;8175;49.326;12.690;2024-01-30T12:08:58;6.17;;;5.40;;
16139;SDS011;8175;49.326;12.690;2024-01-30T12:11:26;6.93;;;5.73;;
16139;SDS011;8175;49.326;12.690;2024-01-30T12:13:52;6.43;;;5.33;;
16139;SDS011;8175;49.326;12.690;2024-01-30T12:16:19;6.43;;;5.63;;
16139;SDS011;8175;49.326;12.690;2024-01-30T12:18:45;6.37;;;5.60;;
16139;SDS011;8175;49.326;12.690;2024-01-30T12:21:11;6.37;;;5.23;;
16139;SDS011;8175;49.326;12.690;2024-01-30T12:23:37;8.70;;;6.50;;
16139;SDS011;8175;49.326;12.690;2024-01-30T12:26:04;7.43;;;5.60;;
16139;SDS011;8175;49.326;12.690;2024-01-30T12:28:32;6.67;;;5.37;;
16139;SDS011;8175;49.326;12.690;2024-01-30T12:31:03;6.67;;;5.67;;
16139;SDS011;8175;49.326;12.690;2024-01-30T12:33:29;6.83;;;6.03;;
16139;SDS011;8175;49.326;12.690;2024-01-30T12:35:56;7.77;;;6.23;;
16139;SDS011;8175;49.326;12.690;2024-01-30T12:38:22;7.30;;;5.90;;
16139;SDS011;8175;49.326;12.690;2024-01-30T12:40:49;7.00;;;5.63;;
16139;SDS011;8175;49.326;12.690;2024-01-30T12:43:19;6.23;;;5.50;;
16139;SDS011;8175;49.326;12.690;2024-01-30T12:45:45;6.20;;;5.60;;
16139;SDS011;8175;49.326;12.690;2024-01-30T12:48:11;6.23;;;5.60;;
16139;SDS011;8175;49.326;12.690;2024-01-30T12:50:37;7.10;;;5.73;;
16139;SDS011;8175;49.326;12.690;2024-01-30T12:53:03;6.17;;;5.40;;
16139;SDS011;8175;49.326;12.690;2024-01-30T12:55:29;9.17;;;6.53;;
16139;SDS011;8175;49.326;12.690;2024-01-30T12:57:55;7.73;;;6.13;;
16139;SDS011;8175;49.326;12.690;2024-01-30T13:00:21;7.13;;;6.20;;
16139;SDS011;8175;49.326;12.690;2024-01-30T13:02:47;7.43;;;5.93;;
16139;SDS011;8175;49.326;12.690;2024-01-30T13:05:13;7.50;;;6.37;;
16139;SDS011;8175;49.326;12.690;2024-01-30T13:07:39;7.23;;;6.30;;
16139;SDS011;8175;49.326;12.690;2024-01-30T13:10:05;8.43;;;6.20;;
16139;SDS011;8175;49.326;12.690;2024-01-30T13:12:31;7.63;;;5.93;;
16139;SDS011;8175;49.326;12.690;2024-01-30T13:15:00;7.83;;;6.30;;
16139;SDS011;8175;49.326;12.690;2024-01-30T13:17:27;7.80;;;6.17;;
16139;SDS011;8175;49.326;12.690;2024-01-30T13:19:53;7.63;;;6.20;;
16139;SDS011;8175;49.326;12.690;2024-01-30T13:22:19;8.53;;;6.37;;
16139;SDS011;8175;49.326;12.690;2024-01-30T13:24:46;7.37;;;5.40;;
16139;SDS011;8175;49.326;12.690;2024-01-30T13:27:13;10.87;;;7.00;;
16139;SDS011;8175;49.326;12.690;2024-01-30T13:29:38;8.60;;;6.30;;
16139;SDS011;8175;49.326;12.690;2024-01-30T13:32:04;9.90;;;7.27;;
16139;SDS011;8175;49.326;12.690;2024-01-30T13:34:30;11.57;;;7.63;;
16139;SDS011;8175;49.326;12.690;2024-01-30T13:36:55;8.43;;;6.70;;
16139;SDS011;8175;49.326;12.690;2024-01-30T13:39:21;7.40;;;6.27;;
16139;SDS011;8175;49.326;12.690;2024-01-30T13:41:48;8.63;;;6.80;;
16139;SDS011;8175;49.326;12.690;2024-01-30T13:44:14;7.13;;;6.07;;
16139;SDS011;8175;49.326;12.690;2024-01-30T13:46:41;7.57;;;5.70;;
16139;SDS011;8175;49.326;12.690;2024-01-30T13:49:07;8.40;;;6.83;;
16139;SDS011;8175;49.326;12.690;2024-01-30T13:51:33;8.63;;;6.37;;
16139;SDS011;8175;49.326;12.690;2024-01-30T13:53:58;9.13;;;6.33;;
16139;SDS011;8175;49.326;12.690;2024-01-30T13:56:24;7.00;;;6.30;;
16139;SDS011;8175;49.326;12.690;2024-01-30T13:58:51;8.67;;;6.10;;
16139;SDS011;8175;49.326;12.690;2024-01-30T14:01:18;8.07;;;6.63;;
16139;SDS011;8175;49.326;12.690;2024-01-30T14:03:43;6.53;;;5.93;;
16139;SDS011;8175;49.326;12.690;2024-01-30T14:06:09;7.47;;;6.40;;
16139;SDS011;8175;49.326;12.690;2024-01-30T14:08:35;7.23;;;6.33;;
16139;SDS011;8175;49.326;12.690;2024-01-30T14:11:01;6.73;;;5.80;;
16139;SDS011;8175;49.326;12.690;2024-01-30T14:13:27;7.83;;;6.00;;
16139;SDS011;8175;49.326;12.690;2024-01-30T14:15:52;7.63;;;5.80;;
16139;SDS011;8175;49.326;12.690;2024-01-30T14:18:19;7.43;;;6.60;;
16139;SDS011;8175;49.326;12.690;2024-01-30T14:20:45;10.00;;;6.60;;
16139;SDS011;8175;49.326;12.690;2024-01-30T14:23:10;7.37;;;5.97;;
16139;SDS011;8175;49.326;12.690;2024-01-30T14:25:36;8.20;;;6.50;;
16139;SDS011;8175;49.326;12.690;2024-01-30T14:28:02;9.00;;;7.03;;
16139;SDS011;8175;49.326;12.690;2024-01-30T14:30:28;10.77;;;8.97;;
16139;SDS011;8175;49.326;12.690;2024-01-30T14:32:53;25.17;;;22.00;;
16139;SDS011;8175;49.326;12.690;2024-01-30T14:35:19;21.03;;;16.60;;
16139;SDS011;8175;49.326;12.690;2024-01-30T14:37:45;10.47;;;7.50;;